• Join FlightAware (Why Join?)
  • Login
  • US Flag 
01:38AM EST


 

Airport Tracker/Info


-or-


 

Live Flight TrackerFlight Track Log ✈ GJS3711 ✈ 21-Jun-2013 ✈ KORD - KCVG

Flight Track Log - Related Links

Times and Time Zones

All times are in EDT time to prevent confusion due to time zone crossing. See the GJS3711 flight status page for this flight to view local times or setup timezone preferences in your user account.

Time Position Orientation Groundspeed Altitude Reporting Facility
EDT Latitude Longitude Course Direction KTS MPH feet Rate Location/Type
04:44PM 41.9167 -87.8833 159° South 191 220 3,800  Level Chicago TRACON
04:45PM 41.8800 -87.8700 165° South 204 235 4,800 1,800 Climbing Chicago Center
04:46PM 41.8125 -87.8567 172° South 263 303 6,800 1,980 Climbing Chicago Center
04:47PM 41.6778 -87.5527 159° South  Level Estimated
04:47PM 41.7486 -87.9097 212° Southwest 277 319 9,000  Level Chicago Center
04:48PM 41.6017 -87.4647 153° Southeast  Level Estimated
04:48PM 41.6792 -87.9600 208° Southwest 286 329 11,500  Level Chicago Center
04:49PM 41.5357 -87.3887 159° South  Level Estimated
04:49PM 41.5789 -87.9611 180° South 305 351 14,700  Level Chicago Center
04:50PM 41.4981 -87.8861 145° Southeast 351 404 15,900 1,500 Climbing Chicago Center
04:51PM 41.4722 -87.7492 104° East 384 442 17,900 1,920 Climbing Chicago Center
04:52PM 41.4631 -87.6086 95° East 381 438 20,000 1,440 Climbing Chicago Center
04:53PM 41.4422 -87.4650 101° East 394 453 21,000 480 Climbing Chicago Center
04:54PM 41.4200 -87.3192 101° East 402 463 21,000  Level Chicago Center
04:55PM 41.3947 -87.1428 101° East 406 467 21,000  Level Chicago Center
04:56PM 41.3711 -86.9983 102° East 403 464 21,000  Level Chicago Center
04:57PM 41.3328 -86.8661 111° Southeast 385 443 21,000  Level Chicago Center
04:58PM 41.2658 -86.7522 128° Southeast 390 449 21,000  Level Chicago Center
04:59PM 41.1992 -86.6339 127° Southeast 385 443 21,000  Level Chicago Center
05:00PM 41.1250 -86.5292 133° Southeast 391 450 21,000  Level Chicago Center
05:02PM 41.0447 -86.4122 132° Southeast  Level FlightAware Approximate
05:02PM 40.9783 -86.3167 132° Southeast 428 493 21,000  Level Indianapolis Center
05:03PM 40.8928 -86.1939 133° Southeast 450 518 21,000  Level Indianapolis Center
05:04PM 40.8061 -86.0692 133° Southeast 459 528 21,000  Level Indianapolis Center
05:05PM 40.7208 -85.9467 133° Southeast 454 522 21,000  Level Indianapolis Center
05:06PM 40.6356 -85.8267 133° Southeast 448 516 21,000  Level Indianapolis Center
05:07PM 40.5503 -85.7061 133° Southeast 448 516 21,000  Level Indianapolis Center
05:08PM 40.4489 -85.5656 133° Southeast 443 510 21,000 -780 Level Indianapolis Center
05:09PM 40.3642 -85.4461 133° Southeast 444 511 19,400 -1,620 Descending Indianapolis Center
05:10PM 40.2828 -85.3333 133° Southeast 429 494 17,700 -1,800 Descending Indianapolis Center
05:11PM 40.2056 -85.2272 134° Southeast 408 470 15,800 -1,980 Descending Indianapolis Center
05:12PM 40.1600 -85.1619 132° Southeast 393 452 14,600 -2,100 Descending Indianapolis Center
05:12PM 40.1186 -85.1067 134° Southeast 389 448 13,600 -1,740 Descending Indianapolis Center
05:13PM 40.0583 -85.0236 133° Southeast 384 442 12,000 -1,740 Descending Indianapolis Center
05:14PM 39.9719 -84.9081 134° Southeast 357 411 10,000 -1,020 Descending Indianapolis Center
05:15PM 39.8886 -84.8772 164° South 341 392 10,000  Level Indianapolis Center
05:16PM 39.7925 -84.8497 168° South 353 406 10,000 -60 Level Indianapolis Center
05:17PM 39.7028 -84.8844 197° South 350 403 9,900  Descending Indianapolis Center
05:18PM 39.6056 -84.9058 190° South 350 403 10,000 -540 Climbing Indianapolis Center
05:20PM 39.5247 -84.8961 175° South 304 350 8,900 -1,500 Descending Indianapolis Center
05:21PM 39.4608 -84.8214 138° Southeast 281 323 7,000 -1,800 Descending Indianapolis Center
05:22PM 39.4067 -84.7553 137° Southeast 271 312 5,200 -1,380 Descending Indianapolis Center
05:23PM 39.3472 -84.7036 146° Southeast 260 299 4,200 -720 Descending Indianapolis Center
05:24PM 39.2858 -84.6647 154° Southeast 258 297 3,800 -420 Descending Indianapolis Center